ADDS METAR Data INFO
IDs: Format: Raw Decoded Include TAF

Data at: 0434 UTC 21 Nov 2017

KAPY 210415Z AUTO 00000KT 10SM CLR 10/08 A3002 RMK AO2 T01020084
KAPY 210355Z AUTO 00000KT 10SM CLR 10/07 A3003 RMK AO2 T01020080
KAPY 210335Z AUTO 00000KT 10SM CLR 11/08 A3002 RMK AO2 T01080082
KAPY 210315Z AUTO 11003KT 10SM CLR 11/08 A3003 RMK AO2 T01150085
KAPY 210255Z AUTO 00000KT 10SM CLR 11/08 A3003 RMK AO2 T01170086
KAPY 210235Z AUTO 00000KT 10SM CLR 12/08 A3003 RMK AO2 T01260090
KAPY 210215Z AUTO 00000KT 10SM CLR 12/08 A3004 RMK AO2 T01300090
KAPY 210155Z AUTO 00000KT 10SM CLR 13/08 A3004 RMK AO2 T01330091
KAPY 210135Z AUTO 00000KT 10SM CLR 13/09 A3004 RMK AO2 T01400091
KAPY 210115Z AUTO 09003KT 10SM CLR 14/09 A3003 RMK AO2 T01450093
KAPY 210055Z AUTO 09004KT 10SM CLR 15/09 A3003 RMK AO2 T01500095
KAPY 210035Z AUTO 09003KT 10SM CLR 15/09 A3003 RMK AO2 T01550097
KAPY 210015Z AUTO 10004KT 10SM CLR 16/10 A3002 RMK AO2 T01600097
KAPY 202355Z AUTO 10005KT 10SM CLR 16/10 A3002 RMK AO2 T01680099
KAPY 202335Z AUTO 10007KT 10SM CLR 17/10 A3002 RMK AO2 T01770098
KAPY 202315Z AUTO 10004KT 10SM CLR 18/10 A3002 RMK AO2 T01830100
KAPY 202255Z AUTO 09005KT 10SM CLR 18/09 A3002 RMK AO2 T01850096
KAPY 202235Z AUTO 10007KT 10SM CLR 18/09 A3002 RMK AO2 T01910095
KAPY 202215Z AUTO 13005KT 10SM SCT034 19/09 A3002 RMK AO2 T01950095
KAPY 202155Z AUTO 10004KT 10SM SCT034 19/09 A3002 RMK AO2 T01940095
KAPY 202135Z AUTO 11005KT 10SM BKN032 20/09 A3002 RMK AO2 T01970092
KAPY 202115Z AUTO 14006KT 10SM BKN032 19/09 A3003 RMK AO2 T01940092
KAPY 202055Z AUTO 11008KT 10SM OVC032 19/08 A3004 RMK AO2 T01970088
KAPY 202035Z AUTO 13005KT 10SM OVC032 19/08 A3005 RMK AO2 T01970089
KAPY 202015Z AUTO 09004KT 10SM OVC032 18/08 A3007 RMK AO2 T01900088
KAPY 201955Z AUTO 09004KT 10SM OVC036 19/08 A3008 RMK AO2 T01930084
KAPY 201935Z AUTO 09004KT 10SM OVC036 18/08 A3009 RMK AO2 T01850085
KAPY 201915Z AUTO 10006KT 10SM OVC034 18/08 A3011 RMK AO2 T01810082
KAPY 201855Z AUTO 09004KT 10SM OVC036 17/07 A3012 RMK AO2 T01800080
KAPY 201835Z AUTO 08004KT 10SM OVC036 17/07 A3013 RMK AO2 T01770075
KAPY 201815Z AUTO 10003KT 10SM OVC036 17/07 A3014 RMK AO2 T01750077
KAPY 201755Z AUTO 12003KT 10SM OVC036 17/07 A3016 RMK AO2 T01700077
KAPY 201735Z AUTO 00000KT 10SM OVC036 16/07 A3017 RMK AO2 T01680078
KAPY 201715Z AUTO 00000KT 10SM OVC038 15/07 A3018 RMK AO2 T01560080
KAPY 201655Z AUTO 00000KT 10SM OVC038 15/07 A3019 RMK AO2 T01500074
KAPY 201635Z AUTO 00000KT 10SM OVC036 14/07 A3020 RMK AO2 LTG DSNT SE T01450076
KAPY 201615Z AUTO 13003KT 10SM OVC040 14/07 A3020 RMK AO2 LTG DSNT E AND SE T01450074
KAPY 201555Z AUTO 08003KT 10SM OVC042 13/07 A3020 RMK AO2 T01400070
KAPY 201535Z AUTO 00000KT 10SM BKN042 BKN120 13/07 A3020 RMK AO2 LTG DSNT E AND SE T01400071
KAPY 201515Z AUTO 10003KT 10SM SCT120 12/07 A3019 RMK AO2 LTG DSNT NE AND E T01300070
KAPY 201455Z AUTO 00000KT 10SM VCTS CLR 10/08 A3020 RMK AO2 LTG DSNT NE THRU SE T01060091
KAPY 201435Z AUTO 00000KT 10SM SCT120 10/08 A3019 RMK AO2 T01020089
KAPY 201415Z AUTO 03003KT 10SM VCTS SCT080 OVC110 10/07 A3017 RMK AO2 LTG DSNT ALQS T01010080
KAPY 201355Z AUTO 00000KT 10SM -RA SCT055 SCT080 BKN100 10/07 A3018 RMK AO2 LTG DSNT NE THRU SW P0001 T01020073
KAPY 201335Z AUTO 00000KT 10SM -RA SCT060 SCT070 BKN120 10/06 A3018 RMK AO2 T01000066
KAPY 201315Z AUTO 00000KT 10SM TS BKN120 10/05 A3017 RMK AO2 LTG DSNT S AND W T00970057
KAPY 201255Z AUTO 00000KT 10SM SCT120 10/05 A3016 RMK AO2 LTG DSNT SE THRU W T00980056
KAPY 201235Z AUTO 23003KT 10SM SCT100 09/05 A3017 RMK AO2 LTG DSNT SE AND SW T00940052
KAPY 201215Z AUTO 00000KT 10SM CLR 08/05 A3015 RMK AO2 LTG DSNT SE T00900048
KAPY 201155Z AUTO 00000KT 10SM -DZ CLR 08/03 A3016 RMK AO2 T00900041
KAPY 201135Z AUTO 30003KT 10SM VCTS CLR 08/03 A3015 RMK AO2 LTG DSNT S T00860037
KAPY 201120Z AUTO 00000KT 10SM CLR 08/03 A3015 RMK AO2 T00810037
KAPY 201055Z AUTO 00000KT 10SM CLR 07/03 A3015 RMK AO2 T00780034
KAPY 201035Z AUTO 00000KT 10SM CLR 08/03 A3016 RMK AO2 T00900031
KAPY 201015Z AUTO 00000KT 10SM CLR 08/02 A3016 RMK AO2 T00890030
KAPY 200955Z AUTO 00000KT 10SM CLR 08/02 A3016 RMK AO2 T00880028
KAPY 200935Z AUTO 00000KT 10SM CLR 08/02 A3017 RMK AO2 T00890026
KAPY 200915Z AUTO 00000KT 10SM CLR 08/02 A3017 RMK AO2 T00870023
KAPY 200855Z AUTO 05004KT 10SM CLR 08/02 A3017 RMK AO2 T00870022
KAPY 200835Z AUTO 05004KT 10SM CLR 08/02 A3017 RMK AO2 T00900022
KAPY 200815Z AUTO 06005KT 10SM CLR 09/02 A3018 RMK AO2 T00940025
KAPY 200755Z AUTO 07004KT 10SM CLR 09/02 A3018 RMK AO2 T00960025
KAPY 200735Z AUTO 06004KT 10SM CLR 09/02 A3019 RMK AO2 T00960025
KAPY 200715Z AUTO 00000KT 10SM CLR 08/02 A3019 RMK AO2 T00830027
KAPY 200655Z AUTO 00000KT 10SM CLR 06/02 A3019 RMK AO2 T00680021
KAPY 200635Z AUTO 00000KT 10SM CLR 08/02 A3019 RMK AO2 T00900022
KAPY 200615Z AUTO 00000KT 10SM CLR 08/02 A3020 RMK AO2 T00830020
KAPY 200555Z AUTO 00000KT 10SM CLR 07/02 A3021 RMK AO2 T00760022
KAPY 200535Z AUTO 00000KT 10SM CLR 08/02 A3021 RMK AO2 T00890026
KAPY 200515Z AUTO 00000KT 10SM CLR 09/01 A3021 RMK AO2 T00970015
KAPY 200455Z AUTO 00000KT 10SM CLR 10/00 A3022 RMK AO2 T00980005
KAPY 200435Z AUTO 10003KT 10SM CLR 11/00 A3022 RMK AO2 T01111001
KAPY 200415Z AUTO 00000KT 10SM CLR 11/00 A3023 RMK AO2 T01171005
KAPY 200355Z AUTO 00000KT 10SM CLR 12/00 A3023 RMK AO2 T01211005
KAPY 200335Z AUTO 00000KT 10SM CLR 10/02 A3023 RMK AO2 T01060024
KAPY 200315Z AUTO 00000KT 10SM CLR 10/02 A3023 RMK AO2 T01040024
KAPY 200255Z AUTO 00000KT 10SM CLR 12/01 A3024 RMK AO2 T01210011
KAPY 200235Z AUTO 00000KT 10SM CLR 13/00 A3023 RMK AO2 T01300006
KAPY 200215Z AUTO 00000KT 10SM CLR 12/00 A3023 RMK AO2 T01240008
KAPY 200155Z AUTO 00000KT 10SM CLR 13/00 A3023 RMK AO2 T01380006
KAPY 200135Z AUTO 00000KT 10SM CLR 13/00 A3023 RMK AO2 T01370000
KAPY 200115Z AUTO 00000KT 10SM CLR 12/00 A3022 RMK AO2 T01271003
KAPY 200055Z AUTO 00000KT 10SM CLR 12/01 A3022 RMK AO2 T01280011
KAPY 200035Z AUTO 00000KT 10SM CLR 13/00 A3021 RMK AO2 T01331001
KAPY 200015Z AUTO 00000KT 10SM CLR 15/00 A3021 RMK AO2 T01551007
KAPY 192355Z AUTO 03003KT 10SM CLR 17/M03 A3021 RMK AO2 T01751032
KAPY 192335Z AUTO 00000KT 10SM CLR 18/M03 A3021 RMK AO2 T01851035
KAPY 192315Z AUTO 00000KT 10SM CLR 19/M03 A3020 RMK AO2 T01931041
KAPY 192255Z AUTO 00000KT 10SM CLR 20/M04 A3021 RMK AO2 T01981041
KAPY 192235Z AUTO 00000KT 10SM CLR 20/M05 A3021 RMK AO2 T01971047
KAPY 192215Z AUTO 04003KT 10SM CLR 20/M04 A3021 RMK AO2 T02031042
KAPY 192155Z AUTO 08003KT 10SM CLR 20/M03 A3021 RMK AO2 T01991040
KAPY 192135Z AUTO 00000KT 10SM CLR 20/M04 A3021 RMK AO2 T02011042
KAPY 192115Z AUTO 07003KT 10SM CLR 20/M04 A3022 RMK AO2 T02031041
KAPY 192055Z AUTO 32005KT 10SM CLR 20/M03 A3023 RMK AO2 T02001041
KAPY 192035Z AUTO 05004KT 10SM CLR 20/M03 A3024 RMK AO2 T02011038
KAPY 192015Z AUTO 04007KT 10SM CLR 20/M03 A3025 RMK AO2 T01981039
KAPY 191955Z AUTO 32003KT 10SM CLR 19/M03 A3025 RMK AO2 T01941032
KAPY 191935Z AUTO 09004KT 10SM CLR 19/M02 A3027 RMK AO2 T01951027
KAPY 191915Z AUTO 00000KT 10SM CLR 18/M02 A3029 RMK AO2 T01911027
KAPY 191855Z AUTO 03004KT 10SM CLR 18/M02 A3030 RMK AO2 T01901029
KAPY 191835Z AUTO 02003KT 10SM CLR 18/M02 A3032 RMK AO2 T01891026
KAPY 191815Z AUTO 02007KT 10SM CLR 18/M02 A3033 RMK AO2 T01831025
KAPY 191755Z AUTO 01007KT 10SM CLR 17/M02 A3035 RMK AO2 T01801025
KAPY 191735Z AUTO 03005KT 10SM CLR 17/M02 A3036 RMK AO2 T01771022
KAPY 191715Z AUTO 03003KT 10SM CLR 17/M02 A3038 RMK AO2 T01751021
KAPY 191655Z AUTO 02006KT 10SM CLR 17/M02 A3039 RMK AO2 T01711019
KAPY 191635Z AUTO 36004KT 10SM CLR 16/M01 A3040 RMK AO2 T01611010